sensor_id;sensor_type;location;lat;lon;timestamp;temperature;humidity
39095;DHT22;24840;47.508;19.376;2022-12-07T00:01:21;0.90;99.90
39095;DHT22;24840;47.508;19.376;2022-12-07T00:03:49;0.70;99.90
39095;DHT22;24840;47.508;19.376;2022-12-07T00:06:16;0.60;99.90
39095;DHT22;24840;47.508;19.376;2022-12-07T00:08:42;0.60;99.90
39095;DHT22;24840;47.508;19.376;2022-12-07T00:11:11;0.60;99.90
39095;DHT22;24840;47.508;19.376;2022-12-07T00:13:37;0.70;99.90
39095;DHT22;24840;47.508;19.376;2022-12-07T00:16:08;0.80;99.90
39095;DHT22;24840;47.508;19.376;2022-12-07T00:18:35;0.80;99.90
39095;DHT22;24840;47.508;19.376;2022-12-07T00:21:05;0.80;99.90
39095;DHT22;24840;47.508;19.376;2022-12-07T00:26:34;1.00;99.90
39095;DHT22;24840;47.508;19.376;2022-12-07T00:29:04;1.00;99.90
39095;DHT22;24840;47.508;19.376;2022-12-07T00:37:52;1.00;99.90
39095;DHT22;24840;47.508;19.376;2022-12-07T00:40:17;1.00;99.90
39095;DHT22;24840;47.508;19.376;2022-12-07T00:42:43;0.90;99.90
39095;DHT22;24840;47.508;19.376;2022-12-07T00:45:09;0.90;99.90
39095;DHT22;24840;47.508;19.376;2022-12-07T00:47:34;0.80;99.90
39095;DHT22;24840;47.508;19.376;2022-12-07T00:50:00;0.90;99.90
39095;DHT22;24840;47.508;19.376;2022-12-07T00:52:26;0.70;99.90
39095;DHT22;24840;47.508;19.376;2022-12-07T00:54:52;0.80;99.90
39095;DHT22;24840;47.508;19.376;2022-12-07T00:57:17;0.70;99.90
39095;DHT22;24840;47.508;19.376;2022-12-07T00:59:43;0.70;99.90
39095;DHT22;24840;47.508;19.376;2022-12-07T01:02:09;0.70;99.90
39095;DHT22;24840;47.508;19.376;2022-12-07T01:04:34;0.70;99.90
39095;DHT22;24840;47.508;19.376;2022-12-07T01:07:00;0.60;99.90
39095;DHT22;24840;47.508;19.376;2022-12-07T01:09:28;0.60;99.90
39095;DHT22;24840;47.508;19.376;2022-12-07T01:11:53;0.60;99.90
39095;DHT22;24840;47.508;19.376;2022-12-07T01:14:19;0.50;99.90
39095;DHT22;24840;47.508;19.376;2022-12-07T01:17:01;0.50;99.90
39095;DHT22;24840;47.508;19.376;2022-12-07T01:19:27;0.40;99.90
39095;DHT22;24840;47.508;19.376;2022-12-07T01:21:52;0.20;99.90
39095;DHT22;24840;47.508;19.376;2022-12-07T01:27:40;0.30;99.90
39095;DHT22;24840;47.508;19.376;2022-12-07T01:30:06;0.40;99.90
39095;DHT22;24840;47.508;19.376;2022-12-07T01:32:33;0.30;99.90
39095;DHT22;24840;47.508;19.376;2022-12-07T01:35:07;0.30;99.90
39095;DHT22;24840;47.508;19.376;2022-12-07T01:37:37;0.40;99.90
39095;DHT22;24840;47.508;19.376;2022-12-07T01:40:05;0.40;99.90
39095;DHT22;24840;47.508;19.376;2022-12-07T01:42:32;0.30;99.90
39095;DHT22;24840;47.508;19.376;2022-12-07T01:47:45;0.30;99.90
39095;DHT22;24840;47.508;19.376;2022-12-07T01:50:12;0.20;99.90
39095;DHT22;24840;47.508;19.376;2022-12-07T01:56:00;0.00;99.90
39095;DHT22;24840;47.508;19.376;2022-12-07T01:58:26;-0.10;99.90
39095;DHT22;24840;47.508;19.376;2022-12-07T02:00:52;0.00;99.90
39095;DHT22;24840;47.508;19.376;2022-12-07T02:03:22;-0.10;99.90
39095;DHT22;24840;47.508;19.376;2022-12-07T02:05:50;0.00;99.90
39095;DHT22;24840;47.508;19.376;2022-12-07T02:08:17;0.00;99.90
39095;DHT22;24840;47.508;19.376;2022-12-07T02:10:44;-0.10;99.90
39095;DHT22;24840;47.508;19.376;2022-12-07T02:13:24;-0.10;99.90
39095;DHT22;24840;47.508;19.376;2022-12-07T02:21:20;-0.10;99.90
39095;DHT22;24840;47.508;19.376;2022-12-07T02:24:16;-0.10;99.90
39095;DHT22;24840;47.508;19.376;2022-12-07T02:29:39;-0.20;99.90
39095;DHT22;24840;47.508;19.376;2022-12-07T02:34:47;0.00;99.90
39095;DHT22;24840;47.508;19.376;2022-12-07T02:40:04;0.20;99.90
39095;DHT22;24840;47.508;19.376;2022-12-07T02:42:36;0.30;99.90
39095;DHT22;24840;47.508;19.376;2022-12-07T02:45:04;0.30;99.90
39095;DHT22;24840;47.508;19.376;2022-12-07T02:47:55;0.20;99.90
39095;DHT22;24840;47.508;19.376;2022-12-07T02:50:22;0.30;99.90
39095;DHT22;24840;47.508;19.376;2022-12-07T02:52:47;0.30;99.90
39095;DHT22;24840;47.508;19.376;2022-12-07T02:55:15;0.30;99.90
39095;DHT22;24840;47.508;19.376;2022-12-07T03:00:32;0.40;99.90
39095;DHT22;24840;47.508;19.376;2022-12-07T03:03:10;0.50;99.90
39095;DHT22;24840;47.508;19.376;2022-12-07T03:05:50;0.60;99.90
39095;DHT22;24840;47.508;19.376;2022-12-07T03:08:41;0.60;99.90
39095;DHT22;24840;47.508;19.376;2022-12-07T03:11:30;0.80;99.90
39095;DHT22;24840;47.508;19.376;2022-12-07T03:14:31;0.70;99.90
39095;DHT22;24840;47.508;19.376;2022-12-07T03:17:03;0.70;99.90
39095;DHT22;24840;47.508;19.376;2022-12-07T03:22:34;0.80;99.90
39095;DHT22;24840;47.508;19.376;2022-12-07T03:25:05;0.80;99.90
39095;DHT22;24840;47.508;19.376;2022-12-07T03:27:57;0.80;99.90
39095;DHT22;24840;47.508;19.376;2022-12-07T03:30:40;0.90;99.90
39095;DHT22;24840;47.508;19.376;2022-12-07T03:33:33;0.90;99.90
39095;DHT22;24840;47.508;19.376;2022-12-07T03:36:10;0.90;99.90
39095;DHT22;24840;47.508;19.376;2022-12-07T03:38:40;1.00;99.90
39095;DHT22;24840;47.508;19.376;2022-12-07T03:41:22;0.90;99.90
39095;DHT22;24840;47.508;19.376;2022-12-07T03:43:49;1.00;99.90
39095;DHT22;24840;47.508;19.376;2022-12-07T03:51:45;1.10;99.90
39095;DHT22;24840;47.508;19.376;2022-12-07T03:54:29;1.10;99.90
39095;DHT22;24840;47.508;19.376;2022-12-07T03:56:57;1.10;99.90
39095;DHT22;24840;47.508;19.376;2022-12-07T03:59:24;1.20;99.90
39095;DHT22;24840;47.508;19.376;2022-12-07T04:01:55;1.30;99.90
39095;DHT22;24840;47.508;19.376;2022-12-07T04:04:23;1.30;99.90
39095;DHT22;24840;47.508;19.376;2022-12-07T04:06:50;1.20;99.90
39095;DHT22;24840;47.508;19.376;2022-12-07T04:09:16;1.20;99.90
39095;DHT22;24840;47.508;19.376;2022-12-07T04:11:42;1.30;99.90
39095;DHT22;24840;47.508;19.376;2022-12-07T04:14:08;1.30;99.90
39095;DHT22;24840;47.508;19.376;2022-12-07T04:20:08;1.30;99.90
39095;DHT22;24840;47.508;19.376;2022-12-07T04:22:34;1.30;99.90
39095;DHT22;24840;47.508;19.376;2022-12-07T04:24:59;1.30;99.90
39095;DHT22;24840;47.508;19.376;2022-12-07T04:27:25;1.40;99.90
39095;DHT22;24840;47.508;19.376;2022-12-07T04:29:51;1.40;99.90
39095;DHT22;24840;47.508;19.376;2022-12-07T04:32:17;1.50;99.90
39095;DHT22;24840;47.508;19.376;2022-12-07T04:34:42;1.40;99.90
39095;DHT22;24840;47.508;19.376;2022-12-07T04:37:08;1.40;99.90
39095;DHT22;24840;47.508;19.376;2022-12-07T04:39:54;1.40;99.90
39095;DHT22;24840;47.508;19.376;2022-12-07T04:42:19;1.50;99.90
39095;DHT22;24840;47.508;19.376;2022-12-07T04:44:45;1.50;99.90
39095;DHT22;24840;47.508;19.376;2022-12-07T04:47:11;1.50;99.90
39095;DHT22;24840;47.508;19.376;2022-12-07T04:49:37;1.60;99.90
39095;DHT22;24840;47.508;19.376;2022-12-07T04:52:03;1.50;99.90
39095;DHT22;24840;47.508;19.376;2022-12-07T04:54:28;1.60;99.90
39095;DHT22;24840;47.508;19.376;2022-12-07T04:56:54;1.60;99.90
39095;DHT22;24840;47.508;19.376;2022-12-07T04:59:20;1.60;99.90
39095;DHT22;24840;47.508;19.376;2022-12-07T05:01:45;1.60;99.90
39095;DHT22;24840;47.508;19.376;2022-12-07T05:04:11;1.60;99.90
39095;DHT22;24840;47.508;19.376;2022-12-07T05:06:37;1.60;99.90
39095;DHT22;24840;47.508;19.376;2022-12-07T05:12:25;1.50;99.90
39095;DHT22;24840;47.508;19.376;2022-12-07T05:14:50;1.60;99.90
39095;DHT22;24840;47.508;19.376;2022-12-07T05:17:16;1.60;99.90
39095;DHT22;24840;47.508;19.376;2022-12-07T05:19:42;1.60;99.90
39095;DHT22;24840;47.508;19.376;2022-12-07T05:22:08;1.70;99.90
39095;DHT22;24840;47.508;19.376;2022-12-07T05:24:33;1.70;99.90
39095;DHT22;24840;47.508;19.376;2022-12-07T05:26:59;1.60;99.90
39095;DHT22;24840;47.508;19.376;2022-12-07T05:29:29;1.60;99.90
39095;DHT22;24840;47.508;19.376;2022-12-07T05:31:55;1.70;99.90
39095;DHT22;24840;47.508;19.376;2022-12-07T05:34:20;1.70;99.90
39095;DHT22;24840;47.508;19.376;2022-12-07T05:37:11;1.70;99.90
39095;DHT22;24840;47.508;19.376;2022-12-07T05:39:37;1.70;99.90
39095;DHT22;24840;47.508;19.376;2022-12-07T05:42:06;1.70;99.90
39095;DHT22;24840;47.508;19.376;2022-12-07T05:44:41;1.70;99.90
39095;DHT22;24840;47.508;19.376;2022-12-07T05:47:07;1.70;99.90
39095;DHT22;24840;47.508;19.376;2022-12-07T05:49:33;1.70;99.90
39095;DHT22;24840;47.508;19.376;2022-12-07T05:51:59;1.70;99.90
39095;DHT22;24840;47.508;19.376;2022-12-07T05:54:25;1.80;99.90
39095;DHT22;24840;47.508;19.376;2022-12-07T05:57:13;1.90;99.90
39095;DHT22;24840;47.508;19.376;2022-12-07T05:59:39;1.90;99.90
39095;DHT22;24840;47.508;19.376;2022-12-07T06:02:27;1.90;99.90
39095;DHT22;24840;47.508;19.376;2022-12-07T06:04:52;1.80;99.90
39095;DHT22;24840;47.508;19.376;2022-12-07T06:07:18;1.80;99.90
39095;DHT22;24840;47.508;19.376;2022-12-07T06:09:44;1.90;99.90
39095;DHT22;24840;47.508;19.376;2022-12-07T06:12:11;1.90;99.90
39095;DHT22;24840;47.508;19.376;2022-12-07T06:14:55;1.80;99.90
39095;DHT22;24840;47.508;19.376;2022-12-07T06:17:43;1.80;99.90
39095;DHT22;24840;47.508;19.376;2022-12-07T06:20:09;1.90;99.90
39095;DHT22;24840;47.508;19.376;2022-12-07T06:22:34;1.90;99.90
39095;DHT22;24840;47.508;19.376;2022-12-07T06:25:00;2.00;99.90
39095;DHT22;24840;47.508;19.376;2022-12-07T06:27:26;1.80;99.90
39095;DHT22;24840;47.508;19.376;2022-12-07T06:30:05;1.80;99.90
39095;DHT22;24840;47.508;19.376;2022-12-07T06:32:32;1.80;99.90
39095;DHT22;24840;47.508;19.376;2022-12-07T06:34:59;1.90;99.90
39095;DHT22;24840;47.508;19.376;2022-12-07T06:37:24;1.80;99.90
39095;DHT22;24840;47.508;19.376;2022-12-07T06:39:50;1.70;99.90
39095;DHT22;24840;47.508;19.376;2022-12-07T06:42:16;1.80;99.90
39095;DHT22;24840;47.508;19.376;2022-12-07T06:44:41;1.80;99.90
39095;DHT22;24840;47.508;19.376;2022-12-07T06:47:07;1.90;99.90
39095;DHT22;24840;47.508;19.376;2022-12-07T06:49:34;1.90;99.90
39095;DHT22;24840;47.508;19.376;2022-12-07T06:52:00;1.80;99.90
39095;DHT22;24840;47.508;19.376;2022-12-07T06:54:26;1.80;99.90
39095;DHT22;24840;47.508;19.376;2022-12-07T06:56:51;1.80;99.90
39095;DHT22;24840;47.508;19.376;2022-12-07T06:59:17;1.80;99.90
39095;DHT22;24840;47.508;19.376;2022-12-07T07:01:43;1.80;99.90
39095;DHT22;24840;47.508;19.376;2022-12-07T07:04:08;1.90;99.90
39095;DHT22;24840;47.508;19.376;2022-12-07T07:06:34;1.80;99.90
39095;DHT22;24840;47.508;19.376;2022-12-07T07:12:22;1.90;99.90
39095;DHT22;24840;47.508;19.376;2022-12-07T07:14:47;1.80;99.90
39095;DHT22;24840;47.508;19.376;2022-12-07T07:17:13;1.90;99.90
39095;DHT22;24840;47.508;19.376;2022-12-07T07:22:45;2.00;99.90
39095;DHT22;24840;47.508;19.376;2022-12-07T07:25:11;2.10;99.90
39095;DHT22;24840;47.508;19.376;2022-12-07T07:30:36;2.00;99.90
39095;DHT22;24840;47.508;19.376;2022-12-07T07:33:03;2.10;99.90
39095;DHT22;24840;47.508;19.376;2022-12-07T07:35:31;2.10;99.90
39095;DHT22;24840;47.508;19.376;2022-12-07T07:37:58;2.20;99.90
39095;DHT22;24840;47.508;19.376;2022-12-07T07:40:24;2.20;99.90
39095;DHT22;24840;47.508;19.376;2022-12-07T07:42:59;2.20;99.90
39095;DHT22;24840;47.508;19.376;2022-12-07T07:45:26;2.20;99.90
39095;DHT22;24840;47.508;19.376;2022-12-07T07:47:52;2.30;99.90
39095;DHT22;24840;47.508;19.376;2022-12-07T07:50:29;2.30;99.90
39095;DHT22;24840;47.508;19.376;2022-12-07T07:52:57;2.40;99.90
39095;DHT22;24840;47.508;19.376;2022-12-07T07:55:23;2.40;99.90
39095;DHT22;24840;47.508;19.376;2022-12-07T07:57:49;2.40;99.90
39095;DHT22;24840;47.508;19.376;2022-12-07T08:00:15;2.50;99.90
39095;DHT22;24840;47.508;19.376;2022-12-07T08:02:41;2.50;99.90
39095;DHT22;24840;47.508;19.376;2022-12-07T08:08:30;2.70;99.90
39095;DHT22;24840;47.508;19.376;2022-12-07T08:10:56;2.70;99.90
39095;DHT22;24840;47.508;19.376;2022-12-07T08:13:21;2.80;99.90
39095;DHT22;24840;47.508;19.376;2022-12-07T08:15:48;2.80;99.90
39095;DHT22;24840;47.508;19.376;2022-12-07T08:18:14;2.90;99.90
39095;DHT22;24840;47.508;19.376;2022-12-07T08:20:41;2.90;99.90
39095;DHT22;24840;47.508;19.376;2022-12-07T08:23:11;2.90;99.90
39095;DHT22;24840;47.508;19.376;2022-12-07T08:25:37;2.90;99.90
39095;DHT22;24840;47.508;19.376;2022-12-07T08:28:03;3.00;99.90
39095;DHT22;24840;47.508;19.376;2022-12-07T08:30:30;3.20;99.90
39095;DHT22;24840;47.508;19.376;2022-12-07T08:33:19;3.20;99.90
39095;DHT22;24840;47.508;19.376;2022-12-07T08:35:47;3.30;99.90
39095;DHT22;24840;47.508;19.376;2022-12-07T08:38:13;3.40;99.90
39095;DHT22;24840;47.508;19.376;2022-12-07T08:44:01;3.40;99.90
39095;DHT22;24840;47.508;19.376;2022-12-07T08:46:38;3.30;99.90
39095;DHT22;24840;47.508;19.376;2022-12-07T08:49:12;3.40;99.90
39095;DHT22;24840;47.508;19.376;2022-12-07T08:51:44;3.40;99.90
39095;DHT22;24840;47.508;19.376;2022-12-07T08:54:35;3.50;99.90
39095;DHT22;24840;47.508;19.376;2022-12-07T08:57:02;3.70;99.90
39095;DHT22;24840;47.508;19.376;2022-12-07T08:59:29;3.70;99.90
39095;DHT22;24840;47.508;19.376;2022-12-07T09:01:57;3.70;99.90
39095;DHT22;24840;47.508;19.376;2022-12-07T09:04:23;3.90;99.90
39095;DHT22;24840;47.508;19.376;2022-12-07T09:06:49;3.90;99.90
39095;DHT22;24840;47.508;19.376;2022-12-07T09:09:27;4.00;99.90
39095;DHT22;24840;47.508;19.376;2022-12-07T09:11:52;4.20;99.90
39095;DHT22;24840;47.508;19.376;2022-12-07T09:14:18;4.20;99.90
39095;DHT22;24840;47.508;19.376;2022-12-07T09:16:44;4.10;99.90
39095;DHT22;24840;47.508;19.376;2022-12-07T09:19:15;4.30;99.90
39095;DHT22;24840;47.508;19.376;2022-12-07T09:21:44;4.50;99.90
39095;DHT22;24840;47.508;19.376;2022-12-07T09:24:15;4.70;99.90
39095;DHT22;24840;47.508;19.376;2022-12-07T09:26:43;4.70;99.90
39095;DHT22;24840;47.508;19.376;2022-12-07T09:29:09;4.70;99.90
39095;DHT22;24840;47.508;19.376;2022-12-07T09:35:04;4.80;99.90
39095;DHT22;24840;47.508;19.376;2022-12-07T09:37:35;4.90;99.90
39095;DHT22;24840;47.508;19.376;2022-12-07T09:40:07;4.80;99.90
39095;DHT22;24840;47.508;19.376;2022-12-07T09:42:55;5.00;99.90
39095;DHT22;24840;47.508;19.376;2022-12-07T09:48:03;4.90;99.90
39095;DHT22;24840;47.508;19.376;2022-12-07T09:53:52;5.10;99.90
39095;DHT22;24840;47.508;19.376;2022-12-07T09:56:40;5.20;99.90
39095;DHT22;24840;47.508;19.376;2022-12-07T09:59:17;5.20;99.90
39095;DHT22;24840;47.508;19.376;2022-12-07T10:05:37;5.40;99.90
39095;DHT22;24840;47.508;19.376;2022-12-07T10:08:05;5.30;99.90
39095;DHT22;24840;47.508;19.376;2022-12-07T10:10:34;5.50;99.90
39095;DHT22;24840;47.508;19.376;2022-12-07T10:13:21;5.50;99.90
39095;DHT22;24840;47.508;19.376;2022-12-07T10:15:55;5.40;99.90
39095;DHT22;24840;47.508;19.376;2022-12-07T10:18:39;5.60;99.90
39095;DHT22;24840;47.508;19.376;2022-12-07T10:21:18;6.30;99.90
39095;DHT22;24840;47.508;19.376;2022-12-07T10:26:40;6.20;99.90
39095;DHT22;24840;47.508;19.376;2022-12-07T10:29:29;6.20;99.90
39095;DHT22;24840;47.508;19.376;2022-12-07T10:34:37;8.10;99.90
39095;DHT22;24840;47.508;19.376;2022-12-07T10:39:56;7.50;99.90
39095;DHT22;24840;47.508;19.376;2022-12-07T10:42:28;7.40;99.90
39095;DHT22;24840;47.508;19.376;2022-12-07T10:45:29;6.90;99.90
39095;DHT22;24840;47.508;19.376;2022-12-07T10:48:18;6.40;99.90
39095;DHT22;24840;47.508;19.376;2022-12-07T11:14:02;8.20;99.90
39095;DHT22;24840;47.508;19.376;2022-12-07T11:22:01;7.90;99.90
39095;DHT22;24840;47.508;19.376;2022-12-07T11:30:22;7.90;99.90
39095;DHT22;24840;47.508;19.376;2022-12-07T11:35:52;8.90;99.90
39095;DHT22;24840;47.508;19.376;2022-12-07T11:38:47;8.40;99.90
39095;DHT22;24840;47.508;19.376;2022-12-07T11:41:21;8.10;99.90
39095;DHT22;24840;47.508;19.376;2022-12-07T11:44:05;8.00;99.90
39095;DHT22;24840;47.508;19.376;2022-12-07T11:46:51;7.70;99.90
39095;DHT22;24840;47.508;19.376;2022-12-07T11:49:41;7.50;99.90
39095;DHT22;24840;47.508;19.376;2022-12-07T11:52:25;7.00;99.90
39095;DHT22;24840;47.508;19.376;2022-12-07T12:01:13;6.60;99.90
39095;DHT22;24840;47.508;19.376;2022-12-07T12:03:55;6.50;99.90
39095;DHT22;24840;47.508;19.376;2022-12-07T12:06:21;6.60;99.90
39095;DHT22;24840;47.508;19.376;2022-12-07T12:21:29;8.30;99.90
39095;DHT22;24840;47.508;19.376;2022-12-07T12:24:12;8.30;99.90
39095;DHT22;24840;47.508;19.376;2022-12-07T12:33:29;8.70;99.90
39095;DHT22;24840;47.508;19.376;2022-12-07T12:50:38;9.10;99.90
39095;DHT22;24840;47.508;19.376;2022-12-07T12:53:23;8.30;99.90
39095;DHT22;24840;47.508;19.376;2022-12-07T12:56:20;8.30;99.90
39095;DHT22;24840;47.508;19.376;2022-12-07T12:58:49;8.80;99.90
39095;DHT22;24840;47.508;19.376;2022-12-07T13:15:53;7.30;99.90
39095;DHT22;24840;47.508;19.376;2022-12-07T13:26:41;6.90;99.90
39095;DHT22;24840;47.508;19.376;2022-12-07T13:29:20;6.80;99.90
39095;DHT22;24840;47.508;19.376;2022-12-07T13:31:58;7.10;99.90
39095;DHT22;24840;47.508;19.376;2022-12-07T13:37:27;7.00;99.90
39095;DHT22;24840;47.508;19.376;2022-12-07T13:40:05;7.10;99.90
39095;DHT22;24840;47.508;19.376;2022-12-07T13:42:43;6.90;99.90
39095;DHT22;24840;47.508;19.376;2022-12-07T13:48:36;6.80;99.90
39095;DHT22;24840;47.508;19.376;2022-12-07T13:51:21;6.50;99.90
39095;DHT22;24840;47.508;19.376;2022-12-07T13:53:49;6.50;99.90
39095;DHT22;24840;47.508;19.376;2022-12-07T13:56:21;6.40;99.90
39095;DHT22;24840;47.508;19.376;2022-12-07T13:58:47;6.20;99.90
39095;DHT22;24840;47.508;19.376;2022-12-07T14:01:13;6.10;99.90
39095;DHT22;24840;47.508;19.376;2022-12-07T14:03:39;6.10;99.90
39095;DHT22;24840;47.508;19.376;2022-12-07T14:06:17;6.10;99.90
39095;DHT22;24840;47.508;19.376;2022-12-07T14:08:44;6.00;99.90
39095;DHT22;24840;47.508;19.376;2022-12-07T14:11:16;5.90;99.90
39095;DHT22;24840;47.508;19.376;2022-12-07T14:14:02;5.80;99.90
39095;DHT22;24840;47.508;19.376;2022-12-07T14:16:30;5.70;99.90
39095;DHT22;24840;47.508;19.376;2022-12-07T14:22:28;5.60;99.90
39095;DHT22;24840;47.508;19.376;2022-12-07T14:27:55;5.30;99.90
39095;DHT22;24840;47.508;19.376;2022-12-07T14:33:47;5.20;99.90
39095;DHT22;24840;47.508;19.376;2022-12-07T14:36:14;5.00;99.90
39095;DHT22;24840;47.508;19.376;2022-12-07T14:38:40;4.90;99.90
39095;DHT22;24840;47.508;19.376;2022-12-07T14:41:13;4.70;99.90
39095;DHT22;24840;47.508;19.376;2022-12-07T14:43:58;4.70;99.90
39095;DHT22;24840;47.508;19.376;2022-12-07T14:49:46;4.50;99.90
39095;DHT22;24840;47.508;19.376;2022-12-07T14:52:16;4.30;99.90
39095;DHT22;24840;47.508;19.376;2022-12-07T14:54:43;4.30;99.90
39095;DHT22;24840;47.508;19.376;2022-12-07T14:57:09;4.30;99.90
39095;DHT22;24840;47.508;19.376;2022-12-07T14:59:38;4.10;99.90
39095;DHT22;24840;47.508;19.376;2022-12-07T15:05:26;3.90;99.90
39095;DHT22;24840;47.508;19.376;2022-12-07T15:07:52;3.80;99.90
39095;DHT22;24840;47.508;19.376;2022-12-07T15:10:32;3.80;99.90
39095;DHT22;24840;47.508;19.376;2022-12-07T15:13:04;3.80;99.90
39095;DHT22;24840;47.508;19.376;2022-12-07T15:15:50;3.50;99.90
39095;DHT22;24840;47.508;19.376;2022-12-07T15:18:17;3.30;99.90
39095;DHT22;24840;47.508;19.376;2022-12-07T15:20:43;3.30;99.90
39095;DHT22;24840;47.508;19.376;2022-12-07T15:23:10;3.20;99.90
39095;DHT22;24840;47.508;19.376;2022-12-07T15:25:36;3.10;99.90
39095;DHT22;24840;47.508;19.376;2022-12-07T15:28:02;2.90;99.90
39095;DHT22;24840;47.508;19.376;2022-12-07T15:30:28;2.80;99.90
39095;DHT22;24840;47.508;19.376;2022-12-07T15:32:54;2.70;99.90
39095;DHT22;24840;47.508;19.376;2022-12-07T15:35:20;2.70;99.90
39095;DHT22;24840;47.508;19.376;2022-12-07T15:37:46;2.80;99.90
39095;DHT22;24840;47.508;19.376;2022-12-07T15:40:13;2.60;99.90
39095;DHT22;24840;47.508;19.376;2022-12-07T15:42:42;2.70;99.90
39095;DHT22;24840;47.508;19.376;2022-12-07T15:45:11;2.60;99.90
39095;DHT22;24840;47.508;19.376;2022-12-07T15:48:04;2.50;99.90
39095;DHT22;24840;47.508;19.376;2022-12-07T15:50:29;2.40;99.90
39095;DHT22;24840;47.508;19.376;2022-12-07T15:52:58;2.30;99.90
39095;DHT22;24840;47.508;19.376;2022-12-07T15:58:46;2.20;99.90
39095;DHT22;24840;47.508;19.376;2022-12-07T16:01:17;2.20;99.90
39095;DHT22;24840;47.508;19.376;2022-12-07T16:03:57;2.10;99.90
39095;DHT22;24840;47.508;19.376;2022-12-07T16:06:23;2.00;99.90
39095;DHT22;24840;47.508;19.376;2022-12-07T16:08:48;2.00;99.90
39095;DHT22;24840;47.508;19.376;2022-12-07T16:11:14;2.00;99.90
39095;DHT22;24840;47.508;19.376;2022-12-07T16:13:40;1.80;99.90
39095;DHT22;24840;47.508;19.376;2022-12-07T16:16:09;1.80;99.90
39095;DHT22;24840;47.508;19.376;2022-12-07T16:18:35;1.70;99.90
39095;DHT22;24840;47.508;19.376;2022-12-07T16:21:01;1.50;99.90
39095;DHT22;24840;47.508;19.376;2022-12-07T16:23:27;1.50;99.90
39095;DHT22;24840;47.508;19.376;2022-12-07T16:25:53;1.60;99.90
39095;DHT22;24840;47.508;19.376;2022-12-07T16:28:19;1.60;99.90
39095;DHT22;24840;47.508;19.376;2022-12-07T16:30:45;1.60;99.90
39095;DHT22;24840;47.508;19.376;2022-12-07T16:33:11;1.50;99.90
39095;DHT22;24840;47.508;19.376;2022-12-07T16:35:40;1.50;99.90
39095;DHT22;24840;47.508;19.376;2022-12-07T16:38:06;1.60;99.90
39095;DHT22;24840;47.508;19.376;2022-12-07T16:40:32;1.60;99.90
39095;DHT22;24840;47.508;19.376;2022-12-07T16:42:58;1.50;99.90
39095;DHT22;24840;47.508;19.376;2022-12-07T16:49:06;1.30;99.90
39095;DHT22;24840;47.508;19.376;2022-12-07T16:52:04;1.40;99.90
39095;DHT22;24840;47.508;19.376;2022-12-07T16:54:30;1.40;99.90
39095;DHT22;24840;47.508;19.376;2022-12-07T17:00:07;1.30;99.90
39095;DHT22;24840;47.508;19.376;2022-12-07T17:02:47;1.20;99.90
39095;DHT22;24840;47.508;19.376;2022-12-07T17:05:16;1.20;99.90
39095;DHT22;24840;47.508;19.376;2022-12-07T17:07:41;1.10;99.90
39095;DHT22;24840;47.508;19.376;2022-12-07T17:10:10;1.10;99.90
39095;DHT22;24840;47.508;19.376;2022-12-07T17:13:01;1.00;99.90
39095;DHT22;24840;47.508;19.376;2022-12-07T17:15:29;1.00;99.90
39095;DHT22;24840;47.508;19.376;2022-12-07T17:17:57;1.00;99.90
39095;DHT22;24840;47.508;19.376;2022-12-07T17:38:24;0.90;99.90
39095;DHT22;24840;47.508;19.376;2022-12-07T17:47:48;0.80;99.90
39095;DHT22;24840;47.508;19.376;2022-12-07T17:50:51;0.60;99.90
39095;DHT22;24840;47.508;19.376;2022-12-07T17:56:57;0.70;99.90
39095;DHT22;24840;47.508;19.376;2022-12-07T17:59:23;0.80;99.90
39095;DHT22;24840;47.508;19.376;2022-12-07T18:02:04;0.70;99.90
39095;DHT22;24840;47.508;19.376;2022-12-07T18:04:30;0.80;99.90
39095;DHT22;24840;47.508;19.376;2022-12-07T18:06:56;0.60;99.90
39095;DHT22;24840;47.508;19.376;2022-12-07T18:09:22;0.60;99.90
39095;DHT22;24840;47.508;19.376;2022-12-07T18:12:03;0.50;99.90
39095;DHT22;24840;47.508;19.376;2022-12-07T18:14:37;0.50;99.90
39095;DHT22;24840;47.508;19.376;2022-12-07T18:17:48;0.50;99.90
39095;DHT22;24840;47.508;19.376;2022-12-07T18:20:16;0.40;99.90
39095;DHT22;24840;47.508;19.376;2022-12-07T18:22:42;0.30;99.90
39095;DHT22;24840;47.508;19.376;2022-12-07T18:25:07;0.20;99.90
39095;DHT22;24840;47.508;19.376;2022-12-07T18:28:01;0.30;99.90
39095;DHT22;24840;47.508;19.376;2022-12-07T18:30:27;0.30;99.90
39095;DHT22;24840;47.508;19.376;2022-12-07T18:32:53;0.20;99.90
39095;DHT22;24840;47.508;19.376;2022-12-07T18:35:18;0.30;99.90
39095;DHT22;24840;47.508;19.376;2022-12-07T18:37:44;0.30;99.90
39095;DHT22;24840;47.508;19.376;2022-12-07T18:40:10;0.30;99.90
39095;DHT22;24840;47.508;19.376;2022-12-07T18:42:36;0.20;99.90
39095;DHT22;24840;47.508;19.376;2022-12-07T18:45:02;0.10;99.90
39095;DHT22;24840;47.508;19.376;2022-12-07T18:47:27;0.20;99.90
39095;DHT22;24840;47.508;19.376;2022-12-07T18:50:09;0.20;99.90
39095;DHT22;24840;47.508;19.376;2022-12-07T18:53:13;0.10;99.90
39095;DHT22;24840;47.508;19.376;2022-12-07T18:55:46;0.10;99.90
39095;DHT22;24840;47.508;19.376;2022-12-07T18:59:30;0.20;99.90
39095;DHT22;24840;47.508;19.376;2022-12-07T19:01:55;0.20;99.90
39095;DHT22;24840;47.508;19.376;2022-12-07T19:04:24;0.10;99.90
39095;DHT22;24840;47.508;19.376;2022-12-07T19:06:56;0.00;99.90
39095;DHT22;24840;47.508;19.376;2022-12-07T19:09:22;0.00;99.90
39095;DHT22;24840;47.508;19.376;2022-12-07T19:11:54;0.00;99.90
39095;DHT22;24840;47.508;19.376;2022-12-07T19:17:35;-0.20;99.90
39095;DHT22;24840;47.508;19.376;2022-12-07T19:20:02;-0.30;99.90
39095;DHT22;24840;47.508;19.376;2022-12-07T19:22:28;-0.30;99.90
39095;DHT22;24840;47.508;19.376;2022-12-07T19:25:31;-0.20;99.90
39095;DHT22;24840;47.508;19.376;2022-12-07T19:28:00;-0.20;99.90
39095;DHT22;24840;47.508;19.376;2022-12-07T19:30:28;-0.30;99.90
39095;DHT22;24840;47.508;19.376;2022-12-07T19:32:54;-0.20;99.90
39095;DHT22;24840;47.508;19.376;2022-12-07T19:35:19;-0.10;99.90
39095;DHT22;24840;47.508;19.376;2022-12-07T19:37:45;-0.20;99.90
39095;DHT22;24840;47.508;19.376;2022-12-07T19:40:11;-0.20;99.90
39095;DHT22;24840;47.508;19.376;2022-12-07T19:42:37;-0.20;99.90
39095;DHT22;24840;47.508;19.376;2022-12-07T19:45:03;-0.40;99.90
39095;DHT22;24840;47.508;19.376;2022-12-07T19:47:29;-0.50;99.90
39095;DHT22;24840;47.508;19.376;2022-12-07T19:49:54;-0.40;99.90
39095;DHT22;24840;47.508;19.376;2022-12-07T19:52:20;-0.50;99.90
39095;DHT22;24840;47.508;19.376;2022-12-07T19:55:09;-0.50;99.90
39095;DHT22;24840;47.508;19.376;2022-12-07T20:01:10;-0.60;99.90
39095;DHT22;24840;47.508;19.376;2022-12-07T20:04:02;-0.50;99.90
39095;DHT22;24840;47.508;19.376;2022-12-07T20:06:42;-0.60;99.90
39095;DHT22;24840;47.508;19.376;2022-12-07T20:09:08;-0.50;99.90
39095;DHT22;24840;47.508;19.376;2022-12-07T20:11:35;-0.60;99.90